Aérodrome :
LOGIN :

S'inscrire | Disclaimer

   EN    FR    IT 

 










Légende :    VFR   VFR Marginal   IFR   IFR Intensif   IFR Très Intensif
Visi : 
Plafond : 
>= 8 km
>= 3000ft
5 à 8 km
1000 à 3000 ft
1500m à 5 km
500 à 1000 ft
800 à 1500m
200 à 500 ft
< 800m
< 200 ft
Symboles :   Orages  Brouillard  Fortes neiges  Fortes précipitations  Vent > 20 kt
SIGMETs :   Divers  Orages  Givrage  Turbulence  Onde Orograph.  Cendres Volcan.






- Altitude de l'aérodrome : -11 ft
- Code IATA : AMS


EHAM - Amsterdam Schiphol

DERNIER METAR :
  • 211425Z 21024G37KT 180V240 9999 SCT025 08/03 Q0988 NOSIG

METARs EXPIRÉS :
  • 211355Z 21023G33KT 9999 SCT025 08/03 Q0987 NOSIG
  • 211325Z 21026KT 9999 SCT025 08/03 Q0988 NOSIG
  • 211255Z 21025KT 180V240 9999 SCT025 08/03 Q0988 NOSIG
  • 211225Z 21026G38KT 9999 SCT025 08/03 Q0988 NOSIG
  • 211155Z 21024KT 9999 SCT023 07/03 Q0988 NOSIG

TAF TAF EHAM
Valide du 21 à 12h jusqu'au 22 à 18h UTC


211117Z 2112/2218 21020G30KT 9999 SCT022
PROB30
TEMPO 2112/2118 22023G35KT 7000 -SHRA FEW020CB BKN022
BECMG 2116/2119 20015KT
BECMG 2118/2121 17010KT 7000 -RA BKN018
TEMPO 2120/2204 3000 RADZ BKN006
BECMG 2122/2201 29008KT
BECMG 2202/2205 26012KT 9999 NSW SCT020
BECMG 2215/2218 23008KT



MET'MAP, la Météo Aéronautique d'un coup d'oeil ! - Copyright ORBIFLY Décembre 2007 - Disclaimer

ORBIFLY MET'MAP TEAM :

Programmation & Développement : Alexandra Zaïnal
Sur une idée originale de : Baudouin d'Aumeries
Assistance à la programmation : Marc-Olivier Méhu
Soutien technique & logistique : Manuel Goepfert

Contact : metmap@orbifly.com




SOURCES & CREDITS :

   NOAA